createdAt,value
2022-08-17T00:02:26.069Z,2.92
2022-08-17T00:04:55.507Z,3.20
2022-08-17T00:07:24.402Z,3.43
2022-08-17T00:09:51.966Z,3.25
2022-08-17T00:12:41.715Z,3.13
2022-08-17T00:15:10.756Z,3.60
2022-08-17T00:17:38.806Z,3.42
2022-08-17T00:20:07.099Z,3.08
2022-08-17T00:22:36.912Z,2.90
2022-08-17T00:25:07.914Z,3.50
2022-08-17T00:27:35.529Z,3.42
2022-08-17T00:30:03.244Z,3.15
2022-08-17T00:33:15.647Z,3.38
2022-08-17T00:35:27.753Z,3.58
2022-08-17T00:37:56.617Z,3.80
2022-08-17T00:40:24.808Z,3.80
2022-08-17T00:42:53.586Z,3.50
2022-08-17T00:45:23.075Z,3.85
2022-08-17T00:47:50.610Z,3.72
2022-08-17T00:50:19.864Z,3.63
2022-08-17T00:52:54.768Z,3.17
2022-08-17T00:55:26.124Z,3.67
2022-08-17T00:57:58.449Z,4.07
2022-08-17T01:00:29.567Z,3.67
2022-08-17T01:03:01.061Z,3.50
2022-08-17T01:05:31.772Z,3.35
2022-08-17T01:08:01.136Z,3.75
2022-08-17T01:10:58.765Z,3.53
2022-08-17T01:13:28.604Z,3.17
2022-08-17T01:16:00.060Z,3.33
2022-08-17T01:18:28.301Z,3.33
2022-08-17T01:20:58.544Z,3.60
2022-08-17T01:23:28.807Z,3.50
2022-08-17T01:25:58.898Z,3.80
2022-08-17T01:28:33.656Z,3.78
2022-08-17T01:31:16.315Z,3.38
2022-08-17T01:33:43.898Z,3.95
2022-08-17T01:36:11.375Z,3.47
2022-08-17T01:38:40.662Z,3.80
2022-08-17T01:41:12.729Z,4.03
2022-08-17T01:43:45.272Z,3.90
2022-08-17T01:46:16.630Z,3.42
2022-08-17T01:48:47.305Z,3.65
2022-08-17T01:51:16.553Z,3.75
2022-08-17T01:53:50.024Z,3.53
2022-08-17T01:56:20.710Z,3.47
2022-08-17T01:58:48.620Z,3.60
2022-08-17T02:01:17.791Z,3.80
2022-08-17T02:03:59.294Z,3.40
2022-08-17T02:06:30.156Z,3.67
2022-08-17T02:09:02.850Z,3.47
2022-08-17T02:11:32.909Z,3.40
2022-08-17T02:14:03.704Z,3.97
2022-08-17T02:16:37.470Z,3.80
2022-08-17T02:19:06.776Z,3.75
2022-08-17T02:21:34.409Z,3.70
2022-08-17T02:24:04.229Z,4.10
2022-08-17T02:26:31.806Z,3.95
2022-08-17T02:28:59.364Z,3.65
2022-08-17T02:31:26.886Z,4.22
2022-08-17T02:34:00.594Z,4.03
2022-08-17T02:36:32.231Z,3.70
2022-08-17T02:39:00.710Z,3.63
2022-08-17T02:41:29.531Z,3.88
2022-08-17T02:43:57.126Z,3.40
2022-08-17T02:46:24.872Z,3.50
2022-08-17T02:48:52.348Z,3.65
2022-08-17T02:51:20.026Z,3.60
2022-08-17T02:53:47.709Z,3.78
2022-08-17T02:56:15.234Z,3.28
2022-08-17T02:58:44.219Z,4.15
2022-08-17T03:01:12.671Z,3.60
2022-08-17T03:03:40.780Z,3.30
2022-08-17T03:06:09.070Z,3.40
2022-08-17T03:08:38.041Z,3.47
2022-08-17T03:11:06.010Z,3.13
2022-08-17T03:13:34.041Z,3.53
2022-08-17T03:16:03.077Z,3.70
2022-08-17T03:18:30.628Z,3.50
2022-08-17T03:21:00.548Z,3.40
2022-08-17T03:23:29.544Z,3.63
2022-08-17T03:25:58.823Z,3.90
2022-08-17T03:28:28.163Z,3.42
2022-08-17T03:30:55.814Z,3.88
2022-08-17T03:33:24.617Z,3.50
2022-08-17T03:35:52.602Z,3.80
2022-08-17T03:38:20.319Z,3.90
2022-08-17T03:40:58.554Z,3.70
2022-08-17T03:43:29.177Z,3.78
2022-08-17T03:46:34.660Z,3.55
2022-08-17T03:49:23.632Z,3.70
2022-08-17T03:52:08.979Z,4.00
2022-08-17T03:54:54.332Z,3.90
2022-08-17T03:57:21.980Z,3.75
2022-08-17T03:59:49.603Z,4.07
2022-08-17T04:02:22.198Z,3.75
2022-08-17T04:04:52.416Z,4.30
2022-08-17T04:07:20.392Z,4.10
2022-08-17T04:09:47.990Z,3.60
2022-08-17T04:12:16.257Z,3.78
2022-08-17T04:14:53.540Z,3.78
2022-08-17T04:17:24.867Z,4.00
2022-08-17T04:19:54.759Z,4.13
2022-08-17T04:22:32.978Z,3.90
2022-08-17T04:27:34.528Z,4.20
2022-08-17T04:30:02.137Z,3.80
2022-08-17T04:33:03.393Z,3.65
2022-08-17T04:35:23.295Z,3.60
2022-08-17T04:37:51.657Z,3.70
2022-08-17T04:40:38.361Z,3.97
2022-08-17T04:43:08.659Z,3.83
2022-08-17T04:45:40.487Z,3.80
2022-08-17T04:48:23.423Z,4.28
2022-08-17T04:51:00.058Z,4.05
2022-08-17T04:53:28.136Z,3.85
2022-08-17T04:55:57.663Z,3.90
2022-08-17T04:58:25.464Z,4.10
2022-08-17T05:00:53.093Z,4.20
2022-08-17T05:03:20.811Z,3.90
2022-08-17T05:05:49.660Z,4.28
2022-08-17T05:08:20.693Z,3.63
2022-08-17T05:10:49.704Z,3.70
2022-08-17T05:13:19.179Z,4.03
2022-08-17T05:15:48.361Z,4.15
2022-08-17T05:18:16.487Z,4.03
2022-08-17T05:20:45.465Z,4.63
2022-08-17T05:23:17.670Z,4.28
2022-08-17T05:25:48.786Z,4.30
2022-08-17T05:28:23.450Z,3.97
2022-08-17T05:30:55.892Z,4.05
2022-08-17T05:35:55.672Z,4.10
2022-08-17T05:38:25.753Z,3.60
2022-08-17T05:40:55.705Z,4.13
2022-08-17T05:43:25.628Z,4.10
2022-08-17T05:46:01.260Z,4.45
2022-08-17T05:48:35.275Z,4.35
2022-08-17T05:51:27.416Z,4.93
2022-08-17T05:54:03.585Z,4.53
2022-08-17T05:56:56.688Z,3.95
2022-08-17T05:59:32.734Z,3.35
2022-08-17T06:02:06.845Z,3.65
2022-08-17T06:04:48.193Z,3.45
2022-08-17T06:07:21.868Z,4.10
2022-08-17T06:09:54.703Z,3.58
2022-08-17T06:12:37.645Z,3.92
2022-08-17T06:15:23.860Z,3.85
2022-08-17T06:17:56.365Z,3.45
2022-08-17T06:20:26.568Z,3.63
2022-08-17T06:22:59.486Z,3.58
2022-08-17T06:25:34.490Z,3.78
2022-08-17T06:28:06.822Z,3.42
2022-08-17T06:31:00.854Z,3.08
2022-08-17T06:33:34.221Z,3.10
2022-08-17T06:36:11.232Z,3.20
2022-08-17T06:38:54.761Z,2.97
2022-08-17T06:41:31.476Z,3.00
2022-08-17T06:44:43.151Z,2.78
2022-08-17T06:47:08.959Z,2.85
2022-08-17T06:49:44.283Z,2.90
2022-08-17T06:52:42.315Z,3.10
2022-08-17T06:55:18.760Z,3.00
2022-08-17T06:57:50.793Z,3.08
2022-08-17T07:00:23.173Z,2.97
2022-08-17T07:02:55.933Z,2.90
2022-08-17T07:05:27.471Z,2.90
2022-08-17T07:08:05.090Z,3.03
2022-08-17T07:10:38.897Z,2.93
2022-08-17T07:13:26.340Z,2.38
2022-08-17T07:16:05.557Z,2.00
2022-08-17T07:18:34.195Z,2.63
2022-08-17T07:21:17.502Z,2.70
2022-08-17T07:24:01.697Z,2.50
2022-08-17T07:26:29.546Z,3.00
2022-08-17T07:28:57.264Z,2.90
2022-08-17T07:31:27.558Z,2.80
2022-08-17T07:34:06.871Z,2.80
2022-08-17T07:36:35.294Z,2.42
2022-08-17T07:39:05.134Z,2.10
2022-08-17T07:41:53.186Z,2.58
2022-08-17T07:44:26.424Z,2.30
2022-08-17T07:47:13.555Z,2.35
2022-08-17T07:49:44.635Z,3.53
2022-08-17T07:52:51.217Z,2.60
2022-08-17T07:55:27.712Z,2.13
2022-08-17T07:57:57.825Z,2.25
2022-08-17T08:00:31.807Z,2.45
2022-08-17T08:03:27.093Z,1.90
2022-08-17T08:06:01.178Z,2.15
2022-08-17T08:08:34.144Z,2.13
2022-08-17T08:11:08.112Z,2.03
2022-08-17T08:13:40.419Z,2.20
2022-08-17T08:16:22.596Z,2.05
2022-08-17T08:18:56.942Z,2.30
2022-08-17T08:21:34.314Z,2.30
2022-08-17T08:24:18.393Z,2.28
2022-08-17T08:26:55.516Z,2.30
2022-08-17T08:29:30.911Z,2.15
2022-08-17T08:32:06.657Z,2.30
2022-08-17T08:35:01.658Z,1.88
2022-08-17T08:37:43.466Z,1.85
2022-08-17T08:40:32.348Z,1.88
2022-08-17T08:43:17.773Z,2.58
2022-08-17T08:45:56.591Z,2.35
2022-08-17T08:48:56.244Z,4.00
2022-08-17T08:51:41.011Z,2.10
2022-08-17T08:54:26.501Z,2.30
2022-08-17T08:57:23.236Z,2.35
2022-08-17T09:00:06.918Z,2.60
2022-08-17T09:03:04.772Z,2.30
2022-08-17T09:08:21.587Z,2.47
2022-08-17T09:10:58.610Z,2.60
2022-08-17T09:13:39.856Z,2.20
2022-08-17T09:16:15.182Z,2.10
2022-08-17T09:19:00.613Z,2.00
2022-08-17T09:21:47.908Z,1.60
2022-08-17T09:24:24.010Z,1.83
2022-08-17T09:26:58.905Z,1.80
2022-08-17T09:29:29.847Z,1.80
2022-08-17T09:31:59.694Z,2.20
2022-08-17T09:34:34.685Z,2.15
2022-08-17T09:37:19.736Z,1.90
2022-08-17T09:39:56.218Z,1.80
2022-08-17T09:42:31.203Z,1.60
2022-08-17T09:45:10.694Z,1.50
2022-08-17T09:47:45.515Z,1.90
2022-08-17T09:51:05.378Z,1.80
2022-08-17T09:53:09.629Z,1.90
2022-08-17T09:58:25.672Z,1.70
2022-08-17T10:01:02.710Z,1.70
2022-08-17T10:03:59.409Z,1.95
2022-08-17T10:06:31.693Z,3.63
2022-08-17T10:09:08.330Z,1.77
2022-08-17T10:12:02.304Z,1.70
2022-08-17T10:14:36.326Z,1.65
2022-08-17T10:17:15.390Z,1.63
2022-08-17T10:19:50.099Z,1.60
2022-08-17T10:22:54.781Z,1.60
2022-08-17T10:25:54.576Z,1.48
2022-08-17T10:28:30.455Z,1.52
2022-08-17T10:31:33.700Z,1.63
2022-08-17T10:34:07.808Z,1.70
2022-08-17T10:36:48.024Z,1.65
2022-08-17T10:39:24.758Z,1.75
2022-08-17T10:41:57.183Z,1.40
2022-08-17T10:44:41.408Z,1.65
2022-08-17T10:47:11.589Z,1.70
2022-08-17T10:49:47.522Z,1.48
2022-08-17T10:52:48.640Z,1.63
2022-08-17T10:55:20.299Z,1.65
2022-08-17T10:57:50.634Z,1.45
2022-08-17T11:00:58.849Z,1.40
2022-08-17T11:03:27.747Z,1.50
2022-08-17T11:06:12.710Z,1.58
2022-08-17T11:09:06.028Z,1.92
2022-08-17T11:11:50.908Z,1.55
2022-08-17T11:14:34.851Z,1.40
2022-08-17T11:17:21.631Z,1.98
2022-08-17T11:20:08.694Z,1.60
2022-08-17T11:22:58.007Z,1.50
2022-08-17T11:25:34.966Z,1.73
2022-08-17T11:28:08.680Z,2.03
2022-08-17T11:30:48.664Z,1.80
2022-08-17T11:34:02.270Z,1.80
2022-08-17T11:36:41.367Z,2.00
2022-08-17T11:39:33.695Z,1.60
2022-08-17T11:42:06.342Z,1.85
2022-08-17T11:44:45.793Z,1.90
2022-08-17T11:48:02.229Z,1.85
2022-08-17T11:51:05.952Z,1.90
2022-08-17T11:56:59.138Z,1.80
2022-08-17T11:59:55.255Z,2.17
2022-08-17T12:02:47.396Z,1.80
2022-08-17T12:05:33.988Z,1.75
2022-08-17T12:08:15.905Z,1.70
2022-08-17T12:10:55.264Z,1.80
2022-08-17T12:13:23.837Z,1.90
2022-08-17T12:16:02.266Z,1.98
2022-08-17T12:18:35.762Z,2.35
2022-08-17T12:21:24.321Z,1.63
2022-08-17T12:24:03.235Z,1.90
2022-08-17T12:26:33.550Z,1.95
2022-08-17T12:29:02.971Z,2.10
2022-08-17T12:31:35.502Z,1.77
2022-08-17T12:34:04.339Z,1.77
2022-08-17T12:36:34.032Z,1.90
2022-08-17T12:39:13.066Z,1.73
2022-08-17T12:41:45.339Z,1.83
2022-08-17T12:44:17.082Z,2.00
2022-08-17T12:46:53.199Z,1.77
2022-08-17T12:49:25.187Z,1.73
2022-08-17T12:52:01.158Z,2.00
2022-08-17T12:54:39.037Z,1.70
2022-08-17T12:57:13.375Z,1.80
2022-08-17T12:59:44.013Z,1.88
2022-08-17T13:02:22.743Z,1.90
2022-08-17T13:04:50.456Z,2.00
2022-08-17T13:07:35.153Z,1.83
2022-08-17T13:10:05.298Z,1.90
2022-08-17T13:12:35.953Z,1.95
2022-08-17T13:15:03.999Z,2.42
2022-08-17T13:17:35.627Z,1.97
2022-08-17T13:20:06.212Z,1.70
2022-08-17T13:22:33.870Z,1.75
2022-08-17T13:25:07.411Z,1.77
2022-08-17T13:27:35.110Z,2.08
2022-08-17T13:30:08.915Z,1.70
2022-08-17T13:32:43.734Z,1.70
2022-08-17T13:35:39.492Z,1.70
2022-08-17T13:38:09.709Z,1.80
2022-08-17T13:40:44.149Z,1.80
2022-08-17T13:43:12.945Z,2.00
2022-08-17T13:48:28.914Z,1.67
2022-08-17T13:51:08.593Z,1.70
2022-08-17T13:53:52.103Z,1.83
2022-08-17T13:56:37.140Z,1.77
2022-08-17T13:59:09.781Z,1.98
2022-08-17T14:01:40.105Z,1.80
2022-08-17T14:04:09.917Z,1.60
2022-08-17T14:06:53.825Z,1.55
2022-08-17T14:09:24.521Z,1.70
2022-08-17T14:11:55.056Z,1.67
2022-08-17T14:14:23.572Z,1.70
2022-08-17T14:16:51.477Z,2.05
2022-08-17T14:19:19.213Z,1.60
2022-08-17T14:21:47.835Z,1.77
2022-08-17T14:26:48.710Z,1.73
2022-08-17T14:29:17.568Z,1.80
2022-08-17T14:31:53.393Z,2.05
2022-08-17T14:34:22.943Z,1.70
2022-08-17T14:36:50.736Z,1.40
2022-08-17T14:39:19.286Z,1.67
2022-08-17T14:41:47.540Z,2.00
2022-08-17T14:44:17.111Z,1.60
2022-08-17T14:46:45.996Z,1.70
2022-08-17T14:49:16.069Z,1.90
2022-08-17T14:51:44.647Z,1.42
2022-08-17T14:57:09.359Z,1.65
2022-08-17T14:59:53.396Z,1.77
2022-08-17T15:02:30.251Z,1.70
2022-08-17T15:05:01.746Z,1.50
2022-08-17T15:07:30.929Z,1.40
2022-08-17T15:09:58.870Z,1.50
2022-08-17T15:12:32.219Z,1.65
2022-08-17T15:15:04.690Z,1.50
2022-08-17T15:17:45.000Z,1.67
2022-08-17T15:20:15.737Z,1.58
2022-08-17T15:22:45.066Z,1.77
2022-08-17T15:25:13.245Z,1.58
2022-08-17T15:27:40.815Z,1.60
2022-08-17T15:30:11.689Z,1.85
2022-08-17T15:32:41.353Z,1.40
2022-08-17T15:35:27.330Z,1.55
2022-08-17T15:37:56.599Z,1.50
2022-08-17T15:40:25.034Z,1.70
2022-08-17T15:42:52.666Z,1.50
2022-08-17T15:45:24.907Z,1.60
2022-08-17T15:47:53.124Z,1.63
2022-08-17T15:50:20.847Z,1.52
2022-08-17T15:52:54.700Z,1.60
2022-08-17T15:55:24.234Z,1.30
2022-08-17T15:57:53.030Z,1.50
2022-08-17T16:03:46.395Z,1.67
2022-08-17T16:05:40.763Z,1.55
2022-08-17T16:08:10.836Z,1.50
2022-08-17T16:10:38.510Z,1.63
2022-08-17T16:13:06.097Z,1.50
2022-08-17T16:15:56.779Z,1.60
2022-08-17T16:18:27.378Z,1.42
2022-08-17T16:20:55.214Z,1.50
2022-08-17T16:23:23.042Z,1.70
2022-08-17T16:25:53.202Z,1.55
2022-08-17T16:28:27.488Z,1.65
2022-08-17T16:31:24.729Z,1.70
2022-08-17T16:34:16.427Z,1.30
2022-08-17T16:36:41.068Z,1.33
2022-08-17T16:39:21.273Z,1.65
2022-08-17T16:41:50.322Z,1.58
2022-08-17T16:44:22.074Z,1.60
2022-08-17T16:46:51.138Z,1.60
2022-08-17T16:49:25.770Z,1.50
2022-08-17T16:52:05.182Z,1.90
2022-08-17T16:54:33.421Z,2.10
2022-08-17T16:57:01.156Z,1.95
2022-08-17T16:59:31.381Z,2.05
2022-08-17T17:02:10.695Z,2.00
2022-08-17T17:04:44.198Z,1.90
2022-08-17T17:07:35.231Z,2.08
2022-08-17T17:10:08.370Z,1.80
2022-08-17T17:13:03.774Z,1.80
2022-08-17T17:15:34.603Z,1.80
2022-08-17T17:18:06.968Z,1.90
2022-08-17T17:20:45.776Z,1.92
2022-08-17T17:23:28.988Z,1.98
2022-08-17T17:26:04.008Z,1.65
2022-08-17T17:28:43.346Z,2.15
2022-08-17T17:31:16.818Z,2.13
2022-08-17T17:33:48.860Z,2.40
2022-08-17T17:36:25.180Z,2.25
2022-08-17T17:38:55.199Z,2.25
2022-08-17T17:41:29.092Z,2.08
2022-08-17T17:44:03.025Z,2.08
2022-08-17T17:46:35.137Z,2.05
2022-08-17T17:49:05.891Z,2.10
2022-08-17T17:52:09.202Z,2.00
2022-08-17T17:54:39.986Z,1.95
2022-08-17T17:57:17.640Z,2.00
2022-08-17T17:59:57.489Z,1.90
2022-08-17T18:02:52.580Z,2.17
2022-08-17T18:05:58.404Z,2.58
2022-08-17T18:08:44.258Z,2.58
2022-08-17T18:11:24.682Z,2.50
2022-08-17T18:14:06.478Z,1.95
2022-08-17T18:16:35.428Z,1.90
2022-08-17T18:19:02.967Z,1.80
2022-08-17T18:21:37.851Z,2.15
2022-08-17T18:24:07.751Z,2.10
2022-08-17T18:26:45.408Z,2.75
2022-08-17T18:29:22.042Z,2.40
2022-08-17T18:31:52.493Z,2.13
2022-08-17T18:34:45.771Z,2.45
2022-08-17T18:37:27.426Z,2.30
2022-08-17T18:39:55.046Z,2.08
2022-08-17T18:42:27.178Z,1.92
2022-08-17T18:44:55.853Z,2.10
2022-08-17T18:47:25.850Z,2.55
2022-08-17T18:49:57.629Z,2.28
2022-08-17T18:52:29.544Z,1.92
2022-08-17T18:55:12.810Z,2.13
2022-08-17T18:57:44.097Z,2.30
2022-08-17T19:00:14.647Z,1.88
2022-08-17T19:02:52.277Z,2.40
2022-08-17T19:05:35.273Z,2.38
2022-08-17T19:08:21.345Z,2.28
2022-08-17T19:10:52.372Z,2.35
2022-08-17T19:13:24.667Z,2.70
2022-08-17T19:16:11.611Z,3.10
2022-08-17T19:18:47.331Z,2.70
2022-08-17T19:21:20.561Z,3.60
2022-08-17T19:23:55.141Z,3.70
2022-08-17T19:26:50.586Z,3.97
2022-08-17T19:29:19.496Z,3.97
2022-08-17T19:31:50.210Z,4.68
2022-08-17T19:34:29.919Z,3.35
2022-08-17T19:37:06.871Z,4.80
2022-08-17T19:39:51.859Z,3.65
2022-08-17T19:42:33.879Z,3.00
2022-08-17T19:45:08.482Z,3.10
2022-08-17T19:47:54.778Z,3.00
2022-08-17T19:50:41.337Z,2.88
2022-08-17T19:53:20.164Z,2.55
2022-08-17T19:55:58.117Z,2.30
2022-08-17T19:58:38.745Z,2.33
2022-08-17T20:01:13.182Z,2.40
2022-08-17T20:03:52.844Z,2.40
2022-08-17T20:06:22.449Z,2.35
2022-08-17T20:08:59.153Z,2.38
2022-08-17T20:11:34.670Z,2.22
2022-08-17T20:14:08.424Z,2.70
2022-08-17T20:16:36.001Z,2.88
2022-08-17T20:19:08.775Z,2.67
2022-08-17T20:21:43.728Z,2.40
2022-08-17T20:24:20.895Z,2.70
2022-08-17T20:26:58.412Z,2.60
2022-08-17T20:29:39.803Z,2.60
2022-08-17T20:32:26.710Z,3.00
2022-08-17T20:35:27.246Z,2.60
2022-08-17T20:38:02.047Z,2.95
2022-08-17T20:40:34.010Z,2.95
2022-08-17T20:43:51.418Z,2.92
2022-08-17T20:46:40.704Z,2.70
2022-08-17T20:49:24.980Z,2.70
2022-08-17T20:52:01.449Z,2.70
2022-08-17T20:54:44.229Z,3.97
2022-08-17T20:57:47.291Z,3.25
2022-08-17T21:00:41.841Z,2.95
2022-08-17T21:03:50.105Z,2.65
2022-08-17T21:06:21.647Z,2.65
2022-08-17T21:08:54.206Z,3.15
2022-08-17T21:11:56.808Z,2.90
2022-08-17T21:14:56.145Z,2.67
2022-08-17T21:17:41.811Z,2.40
2022-08-17T21:20:27.028Z,2.50
2022-08-17T21:23:13.455Z,2.70
2022-08-17T21:26:03.341Z,2.90
2022-08-17T21:29:00.861Z,3.00
2022-08-17T21:31:34.323Z,2.55
2022-08-17T21:34:26.509Z,2.88
2022-08-17T21:36:56.771Z,3.10
2022-08-17T21:39:33.202Z,2.60
2022-08-17T21:42:01.363Z,2.90
2022-08-17T21:44:34.781Z,3.00
2022-08-17T21:47:20.170Z,2.95
2022-08-17T21:49:48.152Z,3.05
2022-08-17T21:52:19.329Z,2.83
2022-08-17T21:54:52.129Z,3.58
2022-08-17T21:57:23.981Z,2.70
2022-08-17T21:59:54.434Z,3.00
2022-08-17T22:02:25.833Z,2.85
2022-08-17T22:04:58.840Z,3.80
2022-08-17T22:07:40.663Z,2.80
2022-08-17T22:10:27.827Z,2.55
2022-08-17T22:13:16.593Z,2.90
2022-08-17T22:15:47.457Z,2.65
2022-08-17T22:18:20.078Z,3.15
2022-08-17T22:20:53.373Z,3.00
2022-08-17T22:23:46.999Z,3.00
2022-08-17T22:26:16.887Z,2.80
2022-08-17T22:28:46.648Z,2.90
2022-08-17T22:31:16.727Z,3.03
2022-08-17T22:33:47.865Z,3.17
2022-08-17T22:36:24.477Z,3.00
2022-08-17T22:38:56.291Z,3.35
2022-08-17T22:41:35.430Z,3.47
2022-08-17T22:44:20.316Z,3.17
2022-08-17T22:47:03.678Z,2.83
2022-08-17T22:49:34.202Z,3.13
2022-08-17T22:52:21.953Z,3.42
2022-08-17T22:55:18.068Z,2.97
2022-08-17T22:58:05.013Z,3.40
2022-08-17T23:00:38.225Z,3.15
2022-08-17T23:03:12.110Z,3.10
2022-08-17T23:05:41.882Z,3.38
2022-08-17T23:08:11.262Z,2.85
2022-08-17T23:13:11.856Z,2.80
2022-08-17T23:15:41.204Z,2.85
2022-08-17T23:20:38.180Z,3.00
2022-08-17T23:23:07.590Z,3.00
